Horquilla, Argentina
Current Conditions -  °F | °C
As of 6:00 PM on Monday 20 Oct 2014 (Local Time) from SARE Reporting Station
Clear Clear  
Wind Chill: 82°   Ceiling: Unl
Heat Index: 83°   Visibility: 6mi
Dew Point: 63°   Wind: 8mph
Humidity: 51%   Direction: 140°SE
Pressure: 30"   Gusts: NA
Location:  27.53°S, 60.18°W
Report Text: SARE 202100Z 14007KT CAVOK 28/17 Q1016
Loading
Personal Weather Stations






























Interactive Weather Map New forecast layout! Learn more

10-Day Weather Forecast

Advertisements
Track Severe Weather on mobile